Time;durP1;ratioP1;P1;durP2;ratioP2;P2;SDS_P1;SDS_P2;PMS_P1;PMS_P2;Temp;Humidity;BMP_temperature;BMP_pressure;BME280_temperature;BME280_humidity;BME280_pressure;Samples;Min_cycle;Max_cycle;Signal;HPM_P1;HPM_P2
2021/10/03 00:01:34;;;;;;;17.40;11.93;;;;;;;6.26;100.00;100098.05;1569888;89;20915;-69
2021/10/03 00:04:02;;;;;;;19.65;12.05;;;;;;;6.25;100.00;100100.63;1564617;90;21465;-67
2021/10/03 00:06:30;;;;;;;18.75;12.37;;;;;;;6.23;100.00;100097.97;1585138;89;20992;-68
2021/10/03 00:08:59;;;;;;;20.25;12.30;;;;;;;6.21;100.00;100096.16;1558541;90;21470;-69
2021/10/03 00:11:30;;;;;;;15.50;10.98;;;;;;;6.18;100.00;100102.20;1584877;89;21454;-69
2021/10/03 00:13:58;;;;;;;17.92;11.05;;;;;;;6.16;100.00;100098.66;1559609;90;20932;-69
2021/10/03 00:16:26;;;;;;;19.60;11.93;;;;;;;6.14;100.00;100094.19;1570326;90;20994;-69
2021/10/03 00:18:53;;;;;;;15.63;11.35;;;;;;;6.11;100.00;100090.18;1585171;89;21003;-69
2021/10/03 00:21:22;;;;;;;18.90;11.55;;;;;;;6.10;100.00;100093.65;1559586;90;21045;-69
2021/10/03 00:23:50;;;;;;;17.00;10.45;;;;;;;6.06;100.00;100091.80;1601745;87;21482;-69
2021/10/03 00:26:18;;;;;;;18.35;11.18;;;;;;;6.04;100.00;100096.10;1558274;90;20991;-69
2021/10/03 00:28:46;;;;;;;17.80;11.10;;;;;;;6.02;100.00;100090.83;1588125;87;21034;-69
2021/10/03 00:31:14;;;;;;;21.55;11.60;;;;;;;6.01;100.00;100092.98;1575489;89;21002;-69
2021/10/03 00:33:41;;;;;;;19.20;12.73;;;;;;;6.00;100.00;100087.28;1575837;89;21010;-69
2021/10/03 00:36:10;;;;;;;20.95;12.63;;;;;;;5.99;100.00;100091.63;1595759;88;21100;-69
2021/10/03 00:38:38;;;;;;;21.95;12.90;;;;;;;6.00;100.00;100090.78;1595758;88;20967;-69
2021/10/03 00:41:06;;;;;;;19.12;12.35;;;;;;;5.99;100.00;100094.25;1595552;88;21478;-69
2021/10/03 00:43:34;;;;;;;27.77;15.70;;;;;;;5.99;100.00;100086.81;1593638;90;21482;-68
2021/10/03 00:46:03;;;;;;;24.25;14.65;;;;;;;6.01;100.00;100094.29;1595110;90;21522;-68
2021/10/03 00:48:31;;;;;;;40.03;23.95;;;;;;;6.00;100.00;100092.09;1595804;88;21070;-68
2021/10/03 00:50:59;;;;;;;33.65;20.90;;;;;;;6.00;100.00;100092.09;1595669;88;21474;-68
2021/10/03 00:53:29;;;;;;;26.23;15.98;;;;;;;6.00;100.00;100092.09;1595824;88;21535;-68
2021/10/03 00:55:57;;;;;;;22.77;14.47;;;;;;;6.01;100.00;100098.22;1595839;88;20904;-68
2021/10/03 00:58:25;;;;;;;22.17;14.40;;;;;;;6.00;100.00;100098.64;1594485;88;21011;-69
2021/10/03 01:00:52;;;;;;;22.42;12.47;;;;;;;5.99;100.00;100096.87;1606117;88;21079;-68
2021/10/03 01:03:20;;;;;;;24.70;14.15;;;;;;;5.99;100.00;100092.05;1609689;88;21015;-69
2021/10/03 01:05:48;;;;;;;24.45;14.38;;;;;;;5.99;100.00;100086.39;1609979;88;20990;-68
2021/10/03 01:08:16;;;;;;;23.40;14.00;;;;;;;5.99;100.00;100087.70;1609651;88;21002;-68
2021/10/03 01:10:45;;;;;;;26.02;15.48;;;;;;;6.00;100.00;100087.28;1585989;89;21537;-68
2021/10/03 01:13:14;;;;;;;24.82;15.30;;;;;;;5.98;100.00;100082.42;1611119;89;21471;-68
2021/10/03 01:15:44;;;;;;;51.50;30.30;;;;;;;5.96;100.00;100086.73;1610946;89;21441;-69
2021/10/03 01:18:13;;;;;;;46.63;26.45;;;;;;;5.92;100.00;100077.91;1583205;89;21047;-68
2021/10/03 01:20:41;;;;;;;33.58;18.30;;;;;;;5.91;100.00;100081.37;1583381;89;21516;-68
2021/10/03 01:23:09;;;;;;;22.65;13.98;;;;;;;5.89;100.00;100077.83;1582195;89;21472;-68
2021/10/03 01:25:45;;;;;;;19.17;12.07;;;;;;;5.87;100.00;100086.45;1582149;90;21110;-68
2021/10/03 01:28:13;;;;;;;17.15;11.43;;;;;;;5.83;100.00;100079.35;1581006;90;20890;-68
2021/10/03 01:30:44;;;;;;;23.77;11.63;;;;;;;5.81;100.00;100076.69;1581385;89;21007;-68
2021/10/03 01:33:13;;;;;;;20.08;11.88;;;;;;;5.80;100.00;100075.34;1575115;90;21500;-68
2021/10/03 01:35:41;;;;;;;15.95;12.10;;;;;;;5.79;100.00;100080.11;1609908;88;20994;-68
2021/10/03 01:38:11;;;;;;;22.37;13.18;;;;;;;5.77;100.00;100089.66;1609576;88;21112;-68
2021/10/03 01:40:39;;;;;;;21.73;12.82;;;;;;;5.73;100.00;100089.11;1609891;88;20948;-68
2021/10/03 01:43:07;;;;;;;22.17;12.98;;;;;;;5.72;100.00;100087.34;1609787;88;21479;-68
2021/10/03 01:45:35;;;;;;;17.62;12.82;;;;;;;5.70;100.00;100087.29;1609901;88;21525;-69
2021/10/03 01:48:13;;;;;;;22.40;14.07;;;;;;;5.71;100.00;100090.80;1610652;88;20892;-68
2021/10/03 01:50:48;;;;;;;20.57;13.50;;;;;;;5.69;100.00;100082.48;1583490;89;21491;-68
2021/10/03 01:53:34;;;;;;;19.62;13.32;;;;;;;5.69;100.00;100081.17;1582512;89;20949;-69
2021/10/03 01:56:02;;;;;;;38.65;20.80;;;;;;;5.67;100.00;100082.83;1554174;91;20999;-68
2021/10/03 01:58:32;;;;;;;95.62;51.23;;;;;;;5.65;100.00;100079.28;1570208;91;21507;-68
2021/10/03 02:01:05;;;;;;;61.20;33.30;;;;;;;5.66;100.00;100082.78;1582379;88;21501;-68
2021/10/03 02:03:33;;;;;;;37.42;22.77;;;;;;;5.64;100.00;100085.77;1590791;90;21486;-68
2021/10/03 02:06:02;;;;;;;27.70;17.60;;;;;;;5.62;100.00;100079.19;1587455;88;21467;-69
2021/10/03 02:08:31;;;;;;;24.72;14.93;;;;;;;5.61;100.00;100077.41;1588345;88;20937;-69
2021/10/03 02:10:59;;;;;;;21.87;14.50;;;;;;;5.61;100.00;100076.53;1588606;90;21050;-69
2021/10/03 02:13:27;;;;;;;21.73;13.53;;;;;;;5.60;100.00;100071.72;1560652;90;21555;-69
2021/10/03 02:15:55;;;;;;;22.32;14.00;;;;;;;5.61;100.00;100079.15;1588411;88;21103;-68
2021/10/03 02:18:23;;;;;;;20.82;12.93;;;;;;;5.57;100.00;100069.02;1588416;88;21022;-68
2021/10/03 02:20:53;;;;;;;22.35;13.55;;;;;;;5.58;100.00;100074.71;1541755;90;21166;-68
2021/10/03 02:23:21;;;;;;;22.13;13.55;;;;;;;5.57;100.00;100072.05;1588194;89;21602;-68
2021/10/03 02:25:49;;;;;;;19.60;12.98;;;;;;;5.55;100.00;100068.08;1594295;89;20996;-68
2021/10/03 02:28:20;;;;;;;18.57;12.37;;;;;;;5.55;100.00;100078.55;1589573;89;21057;-69
2021/10/03 02:30:49;;;;;;;17.32;12.33;;;;;;;5.54;100.00;100082.01;1588990;89;20972;-69
2021/10/03 02:33:17;;;;;;;22.27;12.13;;;;;;;5.52;100.00;100081.50;1588496;90;20984;-69
2021/10/03 02:35:46;;;;;;;20.77;12.28;;;;;;;5.50;100.00;100085.38;1588209;90;21504;-68
2021/10/03 02:38:17;;;;;;;19.00;11.50;;;;;;;5.50;100.00;100087.11;1588158;90;21544;-69
2021/10/03 02:40:46;;;;;;;15.98;10.78;;;;;;;5.50;100.00;100082.77;1588651;89;21132;-68
2021/10/03 02:43:14;;;;;;;20.95;11.90;;;;;;;5.48;100.00;100080.52;1588077;90;21056;-69
2021/10/03 02:45:46;;;;;;;24.45;14.80;;;;;;;5.49;100.00;100081.41;1588434;90;20996;-68
2021/10/03 02:48:14;;;;;;;53.83;26.55;;;;;;;5.47;100.00;100076.56;1588335;90;20935;-68
2021/10/03 02:50:43;;;;;;;69.17;35.20;;;;;;;5.45;100.00;100079.55;1588035;90;21016;-68
2021/10/03 02:53:14;;;;;;;53.90;30.20;;;;;;;5.41;100.00;100080.30;1587131;90;21115;-69
2021/10/03 02:55:42;;;;;;;41.28;23.40;;;;;;;5.40;100.00;100078.53;1588587;89;20938;-68
2021/10/03 02:58:10;;;;;;;29.23;16.77;;;;;;;5.38;100.00;100069.33;1587958;90;21497;-69
2021/10/03 03:00:39;;;;;;;23.85;14.43;;;;;;;5.38;100.00;100073.25;1586552;90;21003;-68
2021/10/03 03:03:07;;;;;;;18.10;11.85;;;;;;;5.40;100.00;100073.30;1585168;89;21491;-69
2021/10/03 03:05:36;;;;;;;20.92;11.73;;;;;;;5.44;100.00;100074.73;1571234;90;21483;-69
2021/10/03 03:08:05;;;;;;;21.23;12.15;;;;;;;5.46;100.00;100076.09;1583901;90;21025;-68
2021/10/03 03:10:34;;;;;;;33.65;19.12;;;;;;;5.42;100.00;100079.05;1570488;91;21432;-69
2021/10/03 03:13:04;;;;;;;38.33;21.68;;;;;;;5.42;100.00;100080.34;1585087;90;21484;-68
2021/10/03 03:15:33;;;;;;;34.18;18.98;;;;;;;5.43;100.00;100088.66;1585370;89;21441;-68
2021/10/03 03:18:01;;;;;;;23.65;15.53;;;;;;;5.43;100.00;100088.66;1585254;90;21159;-68
2021/10/03 03:20:29;;;;;;;19.50;14.28;;;;;;;5.42;100.00;100088.63;1585168;89;21578;-68
2021/10/03 03:22:56;;;;;;;23.18;12.90;;;;;;;5.41;100.00;100087.73;1570447;91;21544;-67
2021/10/03 03:25:24;;;;;;;18.75;12.58;;;;;;;5.43;100.00;100083.85;1585210;90;20936;-68
2021/10/03 03:27:52;;;;;;;16.77;12.33;;;;;;;5.44;100.00;100078.66;1570369;90;21498;-68
2021/10/03 03:30:20;;;;;;;20.05;12.95;;;;;;;5.48;100.00;100079.22;1570452;91;21175;-68
2021/10/03 03:32:49;;;;;;;17.70;13.20;;;;;;;5.52;100.00;100084.12;1570335;91;20981;-69
2021/10/03 03:35:18;;;;;;;21.33;13.58;;;;;;;5.53;100.00;100085.89;1587198;90;20984;-68
2021/10/03 03:37:45;;;;;;;25.12;14.53;;;;;;;5.54;100.00;100086.36;1586091;90;20932;-69
2021/10/03 03:40:15;;;;;;;21.75;15.08;;;;;;;5.54;100.00;100083.32;1570779;91;21490;-68
2021/10/03 03:42:43;;;;;;;25.32;15.75;;;;;;;5.55;100.00;100088.13;1571362;90;21155;-68
2021/10/03 03:45:11;;;;;;;21.60;13.90;;;;;;;5.55;100.00;100091.64;1571412;90;20911;-68
2021/10/03 03:47:40;;;;;;;23.18;13.72;;;;;;;5.56;100.00;100089.48;1570376;91;21472;-68
2021/10/03 03:50:11;;;;;;;22.00;14.38;;;;;;;5.60;100.00;100093.96;1569057;91;21078;-68
2021/10/03 03:52:40;;;;;;;24.77;15.58;;;;;;;5.63;100.00;100096.67;1571457;90;21056;-68
2021/10/03 03:55:08;;;;;;;23.85;14.95;;;;;;;5.64;100.00;100091.90;1585444;90;21092;-68
2021/10/03 03:57:36;;;;;;;23.00;14.25;;;;;;;5.63;100.00;100097.09;1571172;90;20933;-68
2021/10/03 04:00:07;;;;;;;26.65;15.83;;;;;;;5.62;100.00;100100.55;1573647;87;21006;-68
2021/10/03 04:02:35;;;;;;;22.40;14.60;;;;;;;5.62;100.00;100100.12;1597963;89;21031;-69
2021/10/03 04:05:04;;;;;;;27.65;16.15;;;;;;;5.62;100.00;100106.67;1593540;89;21728;-68
2021/10/03 04:07:33;;;;;;;22.07;13.32;;;;;;;5.64;100.00;100109.33;1596610;88;21955;-68
2021/10/03 04:10:05;;;;;;;19.12;12.53;;;;;;;5.65;100.00;100109.38;1567012;89;21494;-68
2021/10/03 04:12:35;;;;;;;22.62;15.48;;;;;;;5.66;100.00;100104.61;1568696;90;21012;-68
2021/10/03 04:15:05;;;;;;;27.55;15.88;;;;;;;5.66;100.00;100108.53;1571995;89;21112;-68
2021/10/03 04:17:32;;;;;;;25.97;15.98;;;;;;;5.63;100.00;100105.83;1592150;88;21057;-69
2021/10/03 04:20:01;;;;;;;32.20;19.10;;;;;;;5.64;100.00;100110.64;1590928;88;21126;-69
2021/10/03 04:22:30;;;;;;;34.13;21.60;;;;;;;5.62;100.00;100110.59;1587744;89;21439;-69
2021/10/03 04:25:00;;;;;;;38.15;22.52;;;;;;;5.60;100.00;100113.59;1560495;91;20955;-68
2021/10/03 04:27:29;;;;;;;35.20;20.68;;;;;;;5.60;100.00;100110.09;1602739;87;21549;-68
2021/10/03 04:29:56;;;;;;;32.05;20.77;;;;;;;5.62;100.00;100118.45;1606479;88;20995;-68
2021/10/03 04:32:24;;;;;;;30.65;19.15;;;;;;;5.64;100.00;100126.34;1590009;88;21899;-69
2021/10/03 04:34:52;;;;;;;33.05;18.92;;;;;;;5.65;100.00;100132.05;1596480;88;21003;-69
2021/10/03 04:37:20;;;;;;;33.48;18.62;;;;;;;5.66;100.00;100129.89;1595268;88;20992;-69
2021/10/03 04:39:47;;;;;;;26.40;17.98;;;;;;;5.67;100.00;100135.59;1597488;89;20958;-69
2021/10/03 04:42:15;;;;;;;27.58;16.52;;;;;;;5.67;100.00;100131.67;1616900;87;20975;-69
2021/10/03 04:44:43;;;;;;;21.42;14.95;;;;;;;5.70;100.00;100137.03;1614206;89;21128;-68
2021/10/03 04:47:11;;;;;;;22.48;15.72;;;;;;;5.75;100.00;100135.43;1614155;86;21500;-69
2021/10/03 04:49:39;;;;;;;24.67;16.52;;;;;;;5.80;100.00;100140.80;1613396;87;21015;-68
2021/10/03 04:52:08;;;;;;;26.00;15.32;;;;;;;5.82;100.00;100134.76;1613068;86;21684;-69
2021/10/03 04:54:36;;;;;;;23.62;15.25;;;;;;;5.83;100.00;100135.64;1604926;89;21066;-69
2021/10/03 04:57:04;;;;;;;19.60;14.05;;;;;;;5.85;100.00;100138.77;1613055;87;21118;-69
2021/10/03 04:59:33;;;;;;;19.52;13.68;;;;;;;5.88;100.00;100140.17;1614076;87;20927;-69
2021/10/03 05:02:01;;;;;;;17.17;12.55;;;;;;;5.93;100.00;100146.45;1610963;87;20968;-69
2021/10/03 05:04:29;;;;;;;18.57;12.93;;;;;;;6.00;100.00;100143.59;1558036;90;21528;-68
2021/10/03 05:06:59;;;;;;;16.17;12.23;;;;;;;6.06;100.00;100146.38;1583335;89;20934;-69
2021/10/03 05:09:27;;;;;;;16.70;12.47;;;;;;;6.13;100.00;100138.27;1584823;89;21937;-69
2021/10/03 05:11:56;;;;;;;19.30;12.82;;;;;;;6.19;100.00;100144.59;1583089;89;20910;-68
2021/10/03 05:14:24;;;;;;;17.32;12.03;;;;;;;6.25;100.00;100143.44;1583003;89;20955;-70
2021/10/03 05:16:53;;;;;;;18.90;13.35;;;;;;;6.32;100.00;100143.18;1582563;89;21468;-69
2021/10/03 05:19:21;;;;;;;20.25;13.25;;;;;;;6.41;100.00;100143.42;1569084;89;20957;-69
2021/10/03 05:21:48;;;;;;;22.60;14.15;;;;;;;6.50;100.00;100146.28;1611146;89;21532;-68
2021/10/03 05:24:16;;;;;;;36.45;14.05;;;;;;;6.56;100.00;100141.20;1583257;89;21471;-70
2021/10/03 05:26:44;;;;;;;26.73;14.50;;;;;;;6.62;100.00;100134.83;1570609;91;20934;-69
2021/10/03 05:29:11;;;;;;;22.10;13.85;;;;;;;6.69;100.00;100132.36;1610667;89;21031;-69
2021/10/03 05:31:40;;;;;;;27.62;14.28;;;;;;;6.76;100.00;100134.28;1583272;89;21102;-69
2021/10/03 05:34:08;;;;;;;26.35;13.18;;;;;;;6.83;100.00;100133.59;1583343;89;21123;-69
2021/10/03 05:36:36;;;;;;;21.48;12.55;;;;;;;6.89;100.00;100132.00;1583263;89;21488;-69
2021/10/03 05:39:04;;;;;;;17.17;11.12;;;;;;;6.98;100.00;100137.00;1582494;89;20936;-70
2021/10/03 05:41:32;;;;;;;23.75;12.15;;;;;;;7.06;100.00;100136.76;1584914;90;20989;-70
2021/10/03 05:43:59;;;;;;;18.62;11.60;;;;;;;7.15;100.00;100133.07;1584490;90;20956;-68
2021/10/03 05:46:27;;;;;;;25.65;11.40;;;;;;;7.24;100.00;100139.41;1582387;90;21077;-68
2021/10/03 05:48:56;;;;;;;20.72;9.93;;;;;;;7.34;100.00;100144.45;1584845;90;21526;-68
2021/10/03 05:51:23;;;;;;;18.98;10.13;;;;;;;7.44;100.00;100138.55;1610010;88;21485;-69
2021/10/03 05:53:51;;;;;;;15.43;10.15;;;;;;;7.53;100.00;100136.13;1609793;89;21454;-69
2021/10/03 05:56:18;;;;;;;15.08;9.13;;;;;;;7.64;100.00;100139.44;1609952;88;20922;-68
2021/10/03 05:58:47;;;;;;;18.30;9.30;;;;;;;7.74;100.00;100145.34;1610191;88;21128;-68
2021/10/03 06:01:15;;;;;;;14.05;9.15;;;;;;;7.81;100.00;100137.62;1607729;87;21084;-68
2021/10/03 06:03:43;;;;;;;15.45;9.43;;;;;;;7.89;100.00;100137.34;1603154;87;21608;-70
2021/10/03 06:06:13;;;;;;;17.12;9.18;;;;;;;7.97;100.00;100143.18;1571506;90;21057;-69
2021/10/03 06:08:41;;;;;;;18.42;9.13;;;;;;;8.04;100.00;100140.73;1569713;90;21459;-68
2021/10/03 06:11:10;;;;;;;17.52;9.98;;;;;;;8.14;100.00;100141.80;1592960;90;21828;-68
2021/10/03 06:13:38;;;;;;;18.10;9.18;;;;;;;8.21;100.00;100141.95;1588995;89;20912;-69
2021/10/03 06:16:07;;;;;;;16.48;8.68;;;;;;;8.31;100.00;100144.75;1580972;90;21501;-69
2021/10/03 06:18:36;;;;;;;14.30;8.78;;;;;;;8.41;100.00;100143.66;1594033;90;21007;-68
2021/10/03 06:21:11;;;;;;;16.55;9.10;;;;;;;8.50;100.00;100145.58;1585802;90;20988;-69
2021/10/03 06:23:35;;;;;;;18.87;9.43;;;;;;;8.61;100.00;100151.06;1570367;90;21488;-69
2021/10/03 06:26:03;;;;;;;17.45;9.08;;;;;;;8.71;100.00;100148.61;1571256;90;20908;-69
2021/10/03 06:28:31;;;;;;;17.57;9.38;;;;;;;8.82;100.00;100146.16;1582287;90;20975;-69
2021/10/03 06:31:01;;;;;;;17.87;10.00;;;;;;;8.92;100.00;100152.46;1595676;89;21454;-69
2021/10/03 06:33:29;;;;;;;42.70;11.30;;;;;;;9.01;100.00;100152.64;1600773;87;21020;-69
2021/10/03 06:35:57;;;;;;;20.20;10.55;;;;;;;9.12;100.00;100153.70;1600563;87;21807;-69
2021/10/03 06:38:24;;;;;;;17.87;10.10;;;;;;;9.21;100.00;100152.52;1595728;90;20929;-69
2021/10/03 06:40:52;;;;;;;26.27;10.78;;;;;;;9.33;100.00;100147.86;1595587;89;20931;-68
2021/10/03 06:43:19;;;;;;;20.62;10.23;;;;;;;9.44;100.00;100159.01;1595808;89;20998;-68
2021/10/03 06:45:48;;;;;;;25.55;10.78;;;;;;;9.56;100.00;100153.06;1595587;89;21042;-69
2021/10/03 06:48:16;;;;;;;20.50;10.32;;;;;;;9.68;100.00;100149.27;1595843;89;21118;-69
2021/10/03 06:50:43;;;;;;;16.12;9.60;;;;;;;9.81;100.00;100157.34;1593200;89;20977;-69
2021/10/03 06:53:12;;;;;;;14.40;9.08;;;;;;;9.92;100.00;100155.28;1592639;89;21485;-70
2021/10/03 06:55:40;;;;;;;12.60;8.95;;;;;;;10.05;100.00;100160.30;1590646;89;20996;-69
2021/10/03 06:58:07;;;;;;;26.87;9.33;;;;;;;10.16;100.00;100157.36;1593886;89;20955;-69
2021/10/03 07:00:37;;;;;;;57.13;11.95;;;;;;;10.29;100.00;100158.41;1590033;88;21136;-69
2021/10/03 07:03:08;;;;;;;17.87;9.70;;;;;;;10.42;100.00;100160.35;1610129;87;21459;-69
2021/10/03 07:05:34;;;;;;;23.32;9.95;;;;;;;10.54;100.00;100161.80;1622839;87;21477;-70
2021/10/03 07:08:05;;;;;;;166.62;19.30;;;;;;;10.64;100.00;100158.38;1621792;87;20931;-69
2021/10/03 07:10:34;;;;;;;21.85;11.18;;;;;;;10.76;100.00;100163.31;1584040;87;21529;-68
2021/10/03 07:13:03;;;;;;;34.35;12.05;;;;;;;10.83;100.00;100162.50;1554541;92;21149;-70
2021/10/03 07:15:31;;;;;;;17.17;10.43;;;;;;;10.92;100.00;100157.34;1567620;90;21455;-69
2021/10/03 07:17:59;;;;;;;26.15;10.23;;;;;;;11.03;100.00;100163.58;1612049;87;20961;-69
2021/10/03 07:20:27;;;;;;;17.98;8.25;;;;;;;11.16;100.00;100160.16;1622331;87;20983;-69
2021/10/03 07:22:54;;;;;;;16.95;9.78;;;;;;;11.29;100.00;100156.73;1630792;86;20945;-68
2021/10/03 07:25:23;;;;;;;15.25;8.68;;;;;;;11.44;100.00;100159.95;1610814;87;21945;-68
2021/10/03 07:27:50;;;;;;;24.37;9.63;;;;;;;11.56;100.00;100152.53;1612710;86;20979;-69
2021/10/03 07:30:18;;;;;;;14.05;8.53;;;;;;;11.71;100.00;100159.23;1609776;86;20953;-69
2021/10/03 07:32:46;;;;;;;22.00;9.73;;;;;;;11.85;100.00;100159.36;1615469;86;21029;-68
2021/10/03 07:35:13;;;;;;;14.05;8.08;;;;;;;11.97;100.00;100154.12;1612835;86;20989;-68
2021/10/03 07:37:41;;;;;;;14.98;8.30;;;;;;;12.11;100.00;100149.77;1614314;86;21067;-67
2021/10/03 07:40:09;;;;;;;18.73;8.65;;;;;;;12.25;100.00;100154.66;1613965;88;20970;-67
2021/10/03 07:42:37;;;;;;;18.80;7.87;;;;;;;12.40;100.00;100154.30;1614548;87;20942;-68
2021/10/03 07:45:06;;;;;;;34.13;9.35;;;;;;;12.52;100.00;100158.29;1617661;86;21061;-68
2021/10/03 07:47:36;;;;;;;19.55;8.03;;;;;;;12.63;100.00;100151.25;1614100;86;20977;-66
2021/10/03 07:50:04;;;;;;;16.12;7.97;;;;;;;12.73;100.00;100155.67;1614195;86;21071;-69
2021/10/03 07:52:33;;;;;;;13.22;7.80;;;;;;;12.88;100.00;100154.84;1613952;86;21452;-68
2021/10/03 07:55:00;;;;;;;12.23;7.35;;;;;;;13.05;100.00;100150.86;1614269;89;21483;-66
2021/10/03 07:57:29;;;;;;;11.15;7.28;;;;;;;13.18;100.00;100145.59;1614005;89;20953;-69
2021/10/03 07:59:56;;;;;;;14.87;7.03;;;;;;;13.35;100.00;100146.92;1614266;87;21004;-69
2021/10/03 08:02:25;;;;;;;17.27;7.35;;;;;;;13.52;100.00;100146.89;1615113;87;21786;-63
2021/10/03 08:04:54;;;;;;;41.00;8.65;;;;;;;13.68;100.00;100149.06;1614115;86;21607;-64
2021/10/03 08:07:22;;;;;;;22.95;8.40;;;;;;;13.78;97.39;100146.41;1613799;86;20941;-63
2021/10/03 08:09:51;;;;;;;14.50;6.87;;;;;;;13.91;95.88;100145.03;1617348;86;21451;-64
2021/10/03 08:12:19;;;;;;;20.43;6.90;;;;;;;14.02;94.64;100145.42;1610962;88;21594;-64
2021/10/03 08:14:47;;;;;;;12.35;6.65;;;;;;;14.12;93.09;100144.49;1609601;86;21107;-72
2021/10/03 08:17:15;;;;;;;11.68;5.95;;;;;;;14.22;91.15;100141.83;1613965;86;20953;-67
2021/10/03 08:19:43;;;;;;;10.03;6.00;;;;;;;14.32;90.43;100140.44;1611715;86;20977;-65
2021/10/03 08:22:11;;;;;;;14.85;6.30;;;;;;;14.48;90.02;100144.80;1614004;86;21492;-70
2021/10/03 08:24:40;;;;;;;11.45;6.37;;;;;;;14.64;88.70;100146.03;1615177;86;21009;-69
2021/10/03 08:27:09;;;;;;;11.68;6.08;;;;;;;14.80;88.03;100147.27;1613967;86;21121;-68
2021/10/03 08:29:38;;;;;;;11.25;6.15;;;;;;;14.95;85.38;100147.59;1610858;86;21470;-68
2021/10/03 08:32:07;;;;;;;11.18;6.80;;;;;;;15.10;84.83;100147.47;1613947;87;20965;-68
2021/10/03 08:34:35;;;;;;;10.35;5.72;;;;;;;15.24;82.88;100139.84;1613924;86;21519;-70
2021/10/03 08:37:03;;;;;;;14.93;5.90;;;;;;;15.37;81.79;100142.37;1613724;87;20954;-70
2021/10/03 08:39:32;;;;;;;11.35;5.55;;;;;;;15.52;79.28;100137.80;1610478;87;21541;-66
2021/10/03 08:42:00;;;;;;;11.28;5.72;;;;;;;15.64;77.37;100137.73;1600483;88;21503;-62
2021/10/03 08:44:31;;;;;;;9.30;4.58;;;;;;;15.73;74.86;100141.62;1578992;89;21592;-66
2021/10/03 08:46:58;;;;;;;7.65;5.25;;;;;;;15.79;72.81;100142.00;1585264;89;21551;-66
2021/10/03 08:49:25;;;;;;;9.63;5.10;;;;;;;15.91;73.38;100142.73;1613596;89;21038;-65
2021/10/03 08:51:53;;;;;;;7.70;4.62;;;;;;;16.04;71.07;100136.80;1613662;89;21132;-66
2021/10/03 08:54:21;;;;;;;7.15;4.03;;;;;;;16.11;67.72;100136.31;1613594;88;20917;-64
2021/10/03 08:56:49;;;;;;;7.58;4.30;;;;;;;16.23;67.85;100133.48;1613903;86;20977;-69
2021/10/03 08:59:17;;;;;;;12.93;4.85;;;;;;;16.34;66.02;100139.09;1614031;86;20913;-68
2021/10/03 09:01:51;;;;;;;17.67;5.12;;;;;;;16.42;64.64;100138.98;1613984;86;20989;-71
2021/10/03 09:04:30;;;;;;;8.18;4.35;;;;;;;16.51;63.89;100136.19;1607019;87;21144;-69
2021/10/03 09:07:13;;;;;;;5.83;3.42;;;;;;;16.54;62.35;100125.94;1595560;89;20978;-64
2021/10/03 09:09:55;;;;;;;;;;;;;;;16.62;61.57;100126.73;1598268;89;20983;-61
2021/10/03 09:12:30;;;;;;;8.87;3.87;;;;;;;16.71;60.98;100127.96;1595870;89;20443;-63
2021/10/03 09:15:00;;;;;;;30.15;4.83;;;;;;;16.79;60.01;100120.72;1595882;89;21065;-67
2021/10/03 09:17:29;;;;;;;8.08;3.40;;;;;;;16.90;59.32;100129.42;1610514;88;21214;-67
2021/10/03 09:20:16;;;;;;;8.00;3.13;;;;;;;16.98;58.89;100121.30;1595975;89;21636;-65
2021/10/03 09:23:01;;;;;;;7.90;3.85;;;;;;;17.07;57.47;100117.18;1595557;89;21712;-70
2021/10/03 09:25:39;;;;;;;6.67;3.60;;;;;;;17.18;56.65;100120.99;1579640;89;21125;-65
2021/10/03 09:28:30;;;;;;;5.33;3.52;;;;;;;17.24;55.60;100125.77;1595673;89;20932;-68
2021/10/03 09:31:14;;;;;;;7.05;3.85;;;;;;;17.29;55.02;100125.23;1595861;89;21789;-65
2021/10/03 09:33:52;;;;;;;4.95;3.47;;;;;;;17.36;54.26;100116.66;1594629;89;21479;-71
2021/10/03 09:36:26;;;;;;;6.15;3.70;;;;;;;17.41;53.71;100122.79;1569505;90;20932;-63
2021/10/03 09:38:57;;;;;;;18.27;4.45;;;;;;;17.48;54.22;100112.88;1595501;89;20956;-67
2021/10/03 09:41:27;;;;;;;12.80;3.80;;;;;;;17.57;54.04;100116.74;1596002;89;21477;-69
2021/10/03 09:44:01;;;;;;;7.55;2.75;;;;;;;17.69;53.66;100110.32;1611189;87;21133;-69
2021/10/03 09:46:45;;;;;;;3.75;2.20;;;;;;;17.78;53.41;100107.47;1589152;87;20949;-61
2021/10/03 09:49:26;;;;;;;3.77;2.65;;;;;;;17.98;53.39;100106.62;1601682;87;21010;-63
2021/10/03 09:51:54;;;;;;;27.48;3.27;;;;;;;18.23;53.10;100107.86;1594256;90;20927;-62
2021/10/03 09:54:23;;;;;;;8.63;2.72;;;;;;;18.48;52.42;100106.00;1595583;88;21022;-62
2021/10/03 09:56:51;;;;;;;5.95;2.55;;;;;;;18.61;50.19;100107.92;1594600;90;21768;-62
2021/10/03 09:59:18;;;;;;;5.00;2.37;;;;;;;18.58;48.75;100102.66;1596958;88;20911;-62
2021/10/03 10:01:46;;;;;;;14.68;2.83;;;;;;;18.54;47.88;100092.50;1595986;88;20919;-62
2021/10/03 10:04:15;;;;;;;7.30;2.45;;;;;;;18.58;47.73;100098.64;1608692;88;20924;-63
2021/10/03 10:06:44;;;;;;;6.58;2.30;;;;;;;18.59;47.32;100095.94;1612229;88;21507;-63
2021/10/03 10:09:15;;;;;;;7.80;3.05;;;;;;;18.58;46.91;100102.20;1612944;88;21195;-62
2021/10/03 10:12:06;;;;;;;17.00;3.42;;;;;;;18.57;46.70;100097.77;1612458;88;20976;-63
2021/10/03 10:14:36;;;;;;;6.97;2.60;;;;;;;18.60;46.77;100091.02;1614773;88;21570;-63
2021/10/03 10:17:38;;;;;;;5.47;2.37;;;;;;;18.64;46.42;100087.84;1618412;88;20967;-63
2021/10/03 10:20:27;;;;;;;16.55;3.58;;;;;;;18.72;46.45;100084.06;1613240;88;21522;-63
2021/10/03 10:23:08;;;;;;;11.22;3.10;;;;;;;18.75;45.94;100075.97;1588137;88;21434;-62
2021/10/03 10:25:52;;;;;;;5.28;2.85;;;;;;;18.71;45.40;100073.41;1587885;89;21553;-62
2021/10/03 10:28:35;;;;;;;4.08;2.95;;;;;;;18.70;45.24;100081.89;1588180;90;20962;-62
2021/10/03 10:31:15;;;;;;;12.45;3.00;;;;;;;18.80;45.09;100066.50;1592003;89;21571;-63
2021/10/03 10:33:57;;;;;;;7.80;2.83;;;;;;;18.93;45.10;100076.00;1612371;88;21024;-64
2021/10/03 10:36:30;;;;;;;6.55;2.80;;;;;;;18.99;45.00;100063.81;1611841;88;21941;-64
2021/10/03 10:39:14;;;;;;;7.03;3.02;;;;;;;19.07;44.60;100067.16;1611983;87;20993;-63
2021/10/03 10:41:51;;;;;;;7.72;2.85;;;;;;;19.05;44.44;100073.02;1611863;87;21489;-62
2021/10/03 10:44:32;;;;;;;8.03;2.50;;;;;;;19.14;44.52;100066.08;1610855;87;21473;-62
2021/10/03 10:47:10;;;;;;;6.90;2.20;;;;;;;19.23;44.41;100060.07;1612926;87;20981;-61
2021/10/03 10:49:52;;;;;;;3.40;1.98;;;;;;;19.41;44.89;100052.45;1612832;87;21034;-62
2021/10/03 10:52:25;;;;;;;24.80;2.60;;;;;;;19.67;44.61;100047.73;1617293;87;20964;-62
2021/10/03 10:55:13;;;;;;;3.42;2.35;;;;;;;19.87;43.93;100057.87;1627588;87;20972;-62
2021/10/03 10:57:57;;;;;;;3.25;2.00;;;;;;;19.90;42.85;100052.44;1625900;88;20960;-61
2021/10/03 11:00:27;;;;;;;3.00;2.00;;;;;;;19.97;42.61;100052.66;1576238;90;20928;-61
2021/10/03 11:02:58;;;;;;;7.22;2.52;;;;;;;20.14;42.39;100054.83;1623529;87;20927;-61
2021/10/03 11:05:47;;;;;;;12.43;2.60;;;;;;;20.28;42.02;100042.34;1623335;87;20884;-61
2021/10/03 11:08:19;;;;;;;7.37;2.33;;;;;;;20.45;42.12;100048.11;1622473;86;20976;-65
2021/10/03 11:11:09;;;;;;;4.58;2.15;;;;;;;20.55;41.36;100045.54;1624913;87;21494;-65
2021/10/03 11:13:48;;;;;;;10.68;2.58;;;;;;;20.56;40.54;100043.27;1623356;87;21495;-65
2021/10/03 11:16:42;;;;;;;4.03;2.08;;;;;;;20.47;40.54;100043.57;1626303;87;21120;-64
2021/10/03 11:19:16;;;;;;;8.80;2.85;;;;;;;20.54;40.64;100042.45;1625468;87;20972;-66
2021/10/03 11:21:51;;;;;;;5.10;2.42;;;;;;;20.66;40.30;100038.48;1625325;87;20989;-62
2021/10/03 11:24:24;;;;;;;4.87;2.08;;;;;;;20.72;39.99;100033.80;1604660;87;21506;-67
2021/10/03 11:27:06;;;;;;;5.55;2.10;;;;;;;20.78;39.40;100035.39;1634303;87;20936;-64
2021/10/03 11:29:47;;;;;;;4.97;2.50;;;;;;;20.83;39.07;100032.59;1647563;87;21197;-66